createdAt,value
2022-10-18T00:01:09.084Z,101133.99
2022-10-18T00:06:14.583Z,101134.71
2022-10-18T00:08:42.581Z,101139.59
2022-10-18T00:11:12.264Z,101134.80
2022-10-18T00:13:41.340Z,101134.23
2022-10-18T00:16:13.460Z,101134.27
2022-10-18T00:18:42.074Z,101139.38
2022-10-18T00:21:22.532Z,101138.05
2022-10-18T00:23:51.912Z,101133.67
2022-10-18T00:26:21.315Z,101135.20
2022-10-18T00:28:57.257Z,101133.50
2022-10-18T00:31:27.898Z,101138.17
2022-10-18T00:33:58.547Z,101137.25
2022-10-18T00:36:28.421Z,101140.23
2022-10-18T00:38:57.130Z,101136.80
2022-10-18T00:41:27.770Z,101135.31
2022-10-18T00:44:07.530Z,101133.23
2022-10-18T00:46:37.773Z,101126.02
2022-10-18T00:49:13.568Z,101116.52
2022-10-18T00:51:46.947Z,101121.04
2022-10-18T00:54:17.672Z,101114.64
2022-10-18T00:56:46.469Z,101109.87
2022-10-18T00:59:17.255Z,101111.14
2022-10-18T01:01:45.759Z,101109.87
2022-10-18T01:04:15.678Z,101109.66
2022-10-18T01:07:02.799Z,101106.67
2022-10-18T01:09:56.146Z,101109.00
2022-10-18T01:12:42.413Z,101108.04
2022-10-18T01:15:13.312Z,101105.82
2022-10-18T01:17:47.347Z,101104.49
2022-10-18T01:20:34.153Z,101104.02
2022-10-18T01:23:17.781Z,101106.30
2022-10-18T01:26:16.278Z,101105.37
2022-10-18T01:29:09.279Z,101111.31
2022-10-18T01:31:45.435Z,101107.33
2022-10-18T01:34:17.013Z,101103.39
2022-10-18T01:36:49.879Z,101102.51
2022-10-18T01:39:26.637Z,101098.69
2022-10-18T01:41:58.513Z,101096.15
2022-10-18T01:44:29.946Z,101096.52
2022-10-18T01:46:59.690Z,101096.75
2022-10-18T01:49:27.777Z,101100.80
2022-10-18T01:51:55.888Z,101100.36
2022-10-18T01:54:34.668Z,101095.84
2022-10-18T01:57:21.189Z,101093.87
2022-10-18T01:59:56.833Z,101094.58
2022-10-18T02:02:26.319Z,101090.66
2022-10-18T02:05:10.327Z,101086.84
2022-10-18T02:08:12.548Z,101088.48
2022-10-18T02:10:51.762Z,101088.21
2022-10-18T02:13:22.684Z,101086.30
2022-10-18T02:15:56.682Z,101084.33
2022-10-18T02:18:33.429Z,101089.36
2022-10-18T02:21:05.680Z,101080.67
2022-10-18T02:23:34.197Z,101083.96
2022-10-18T02:26:02.590Z,101089.13
2022-10-18T02:28:31.399Z,101078.20
2022-10-18T02:31:10.189Z,101082.34
2022-10-18T02:33:52.858Z,101084.08
2022-10-18T02:37:02.977Z,101083.23
2022-10-18T02:39:37.650Z,101081.19
2022-10-18T02:42:07.237Z,101079.73
2022-10-18T02:44:36.631Z,101086.21
2022-10-18T02:47:08.489Z,101085.05
2022-10-18T02:49:36.813Z,101086.61
2022-10-18T02:52:04.901Z,101090.91
2022-10-18T02:54:32.894Z,101088.27
2022-10-18T02:57:00.984Z,101092.59
2022-10-18T02:59:28.980Z,101094.40
2022-10-18T03:01:57.188Z,101093.86
2022-10-18T03:04:25.405Z,101091.42
2022-10-18T03:06:54.009Z,101099.80
2022-10-18T03:09:22.022Z,101106.60
2022-10-18T03:11:50.041Z,101108.80
2022-10-18T03:14:18.173Z,101108.97
2022-10-18T03:16:46.214Z,101110.26
2022-10-18T03:19:14.479Z,101111.52
2022-10-18T03:21:42.681Z,101114.09
2022-10-18T03:24:10.623Z,101112.80
2022-10-18T03:26:38.610Z,101112.34
2022-10-18T03:29:06.632Z,101106.48
2022-10-18T03:31:34.630Z,101110.65
2022-10-18T03:34:03.148Z,101117.70
2022-10-18T03:36:31.214Z,101119.99
2022-10-18T03:38:59.305Z,101115.65
2022-10-18T03:41:28.019Z,101119.02
2022-10-18T03:43:56.032Z,101125.45
2022-10-18T03:46:24.010Z,101129.70
2022-10-18T03:48:52.100Z,101128.71
2022-10-18T03:51:20.097Z,101129.08
2022-10-18T03:53:48.084Z,101133.26
2022-10-18T03:56:16.122Z,101138.39
2022-10-18T03:58:44.415Z,101139.89
2022-10-18T04:01:13.337Z,101144.08
2022-10-18T04:03:41.719Z,101139.64
2022-10-18T04:06:10.123Z,101132.69
2022-10-18T04:08:38.695Z,101139.35
2022-10-18T04:11:12.222Z,101143.85
2022-10-18T04:13:40.260Z,101140.77
2022-10-18T04:16:08.393Z,101143.84
2022-10-18T04:18:36.534Z,101143.20
2022-10-18T04:21:04.699Z,101149.10
2022-10-18T04:23:35.105Z,101149.46
2022-10-18T04:26:07.306Z,101140.66
2022-10-18T04:28:40.380Z,101149.94
2022-10-18T04:31:09.718Z,101148.30
2022-10-18T04:33:38.657Z,101149.88
2022-10-18T04:36:07.109Z,101152.16
2022-10-18T04:38:35.666Z,101153.16
2022-10-18T04:41:03.974Z,101152.93
2022-10-18T04:43:33.047Z,101150.00
2022-10-18T04:46:02.117Z,101154.91
2022-10-18T04:48:31.508Z,101154.45
2022-10-18T04:50:59.944Z,101154.36
2022-10-18T04:53:28.124Z,101154.39
2022-10-18T04:55:56.494Z,101152.15
2022-10-18T04:58:24.937Z,101158.10
2022-10-18T05:00:53.768Z,101152.64
2022-10-18T05:03:22.033Z,101148.75
2022-10-18T05:06:01.410Z,101145.04
2022-10-18T05:08:33.094Z,101145.11
2022-10-18T05:11:02.136Z,101149.52
2022-10-18T05:13:31.217Z,101145.05
2022-10-18T05:16:00.529Z,101146.43
2022-10-18T05:18:28.925Z,101147.17
2022-10-18T05:20:57.629Z,101145.67
2022-10-18T05:23:26.238Z,101139.45
2022-10-18T05:25:54.916Z,101147.19
2022-10-18T05:28:41.041Z,101148.67
2022-10-18T05:31:12.379Z,101148.55
2022-10-18T05:33:40.595Z,101147.63
2022-10-18T05:36:10.014Z,101146.52
2022-10-18T05:38:40.326Z,101147.48
2022-10-18T05:41:08.851Z,101144.77
2022-10-18T05:43:38.292Z,101144.11
2022-10-18T05:46:14.747Z,101145.54
2022-10-18T05:48:45.597Z,101147.88
2022-10-18T05:51:14.396Z,101143.11
2022-10-18T05:53:42.724Z,101139.33
2022-10-18T05:56:15.057Z,101143.02
2022-10-18T05:58:43.803Z,101140.30
2022-10-18T06:01:12.328Z,101147.02
2022-10-18T06:03:41.785Z,101148.13
2022-10-18T06:06:12.553Z,101148.45
2022-10-18T06:08:44.348Z,101138.80
2022-10-18T06:11:20.535Z,101144.21
2022-10-18T06:13:50.667Z,101144.59
2022-10-18T06:16:22.683Z,101149.30
2022-10-18T06:18:55.563Z,101150.40
2022-10-18T06:21:25.451Z,101151.05
2022-10-18T06:23:56.772Z,101155.86
2022-10-18T06:26:27.424Z,101155.02
2022-10-18T06:28:56.933Z,101154.08
2022-10-18T06:31:26.190Z,101149.36
2022-10-18T06:33:58.334Z,101147.41
2022-10-18T06:36:29.009Z,101146.85
2022-10-18T06:38:58.110Z,101148.97
2022-10-18T06:41:27.003Z,101153.08
2022-10-18T06:43:57.986Z,101154.13
2022-10-18T06:46:27.427Z,101153.58
2022-10-18T06:48:58.128Z,101156.66
2022-10-18T06:51:26.798Z,101155.96
2022-10-18T06:54:13.045Z,101154.87
2022-10-18T06:56:43.539Z,101158.27
2022-10-18T06:59:12.047Z,101160.50
2022-10-18T07:01:40.850Z,101163.58
2022-10-18T07:04:10.180Z,101164.73
2022-10-18T07:06:39.182Z,101166.70
2022-10-18T07:09:07.663Z,101170.36
2022-10-18T07:11:36.256Z,101166.59
2022-10-18T07:14:05.560Z,101163.46
2022-10-18T07:16:35.431Z,101168.52
2022-10-18T07:19:09.346Z,101175.91
2022-10-18T07:21:39.677Z,101177.59
2022-10-18T07:24:09.344Z,101179.02
2022-10-18T07:26:38.965Z,101183.32
2022-10-18T07:29:12.436Z,101183.59
2022-10-18T07:31:41.936Z,101162.41
2022-10-18T07:34:14.581Z,101181.98
2022-10-18T07:36:43.273Z,101182.88
2022-10-18T07:39:12.372Z,101184.33
2022-10-18T07:41:43.794Z,101183.55
2022-10-18T07:44:12.577Z,101183.52
2022-10-18T07:46:42.445Z,101173.54
2022-10-18T07:49:12.658Z,101180.24
2022-10-18T07:51:43.627Z,101175.98
2022-10-18T07:54:12.587Z,101172.92
2022-10-18T07:56:41.583Z,101174.15
2022-10-18T07:59:11.364Z,101173.37
2022-10-18T08:01:41.032Z,101166.20
2022-10-18T08:04:16.079Z,101161.27
2022-10-18T08:06:46.711Z,101159.02
2022-10-18T08:09:16.611Z,101159.05
2022-10-18T08:11:45.935Z,101157.77
2022-10-18T08:14:16.226Z,101158.19
2022-10-18T08:16:46.143Z,101158.05
2022-10-18T08:19:15.856Z,101157.06
2022-10-18T08:21:44.811Z,101152.16
2022-10-18T08:24:14.270Z,101152.85
2022-10-18T08:26:44.263Z,101148.11
2022-10-18T08:29:31.891Z,101144.61
2022-10-18T08:32:02.862Z,101137.83
2022-10-18T08:34:32.690Z,101134.39
2022-10-18T08:37:02.515Z,101129.43
2022-10-18T08:39:32.019Z,101123.29
2022-10-18T08:42:21.386Z,101122.81
2022-10-18T08:44:53.466Z,101122.02
2022-10-18T08:47:35.409Z,101121.64
2022-10-18T08:50:28.342Z,101118.04
2022-10-18T08:53:08.073Z,101120.59
2022-10-18T08:55:43.688Z,101110.41
2022-10-18T08:58:18.853Z,101119.80
2022-10-18T09:01:29.735Z,101115.16
2022-10-18T09:04:10.110Z,101108.29
2022-10-18T09:06:51.274Z,101099.13
2022-10-18T09:09:23.741Z,101089.02
2022-10-18T09:12:21.309Z,101083.98
2022-10-18T09:15:11.875Z,101081.50
2022-10-18T09:18:03.907Z,101082.13
2022-10-18T09:20:35.734Z,101077.48
2022-10-18T09:23:20.131Z,101073.95
2022-10-18T09:26:02.365Z,101068.39
2022-10-18T09:28:46.730Z,101066.80
2022-10-18T09:31:26.665Z,101063.27
2022-10-18T09:34:14.625Z,101062.52
2022-10-18T09:36:45.846Z,101059.59
2022-10-18T09:39:21.102Z,101055.94
2022-10-18T09:41:58.335Z,101049.28
2022-10-18T09:44:44.887Z,101043.91
2022-10-18T09:47:17.210Z,101047.36
2022-10-18T09:49:51.462Z,101050.01
2022-10-18T09:52:28.006Z,101040.89
2022-10-18T09:55:02.933Z,101049.53
2022-10-18T09:57:42.609Z,101036.31
2022-10-18T10:00:21.511Z,101017.28
2022-10-18T10:02:50.164Z,101010.27
2022-10-18T10:05:19.545Z,101014.48
2022-10-18T10:07:49.543Z,101012.56
2022-10-18T10:10:26.412Z,100994.53
2022-10-18T10:13:17.958Z,101008.00
2022-10-18T10:16:00.545Z,101007.95
2022-10-18T10:18:35.259Z,100993.83
2022-10-18T10:21:07.852Z,101019.14
2022-10-18T10:23:40.506Z,101019.19
2022-10-18T10:26:24.370Z,101017.46
2022-10-18T10:28:52.813Z,101013.94
2022-10-18T10:31:31.814Z,101008.14
2022-10-18T10:34:19.347Z,101009.98
2022-10-18T10:36:51.030Z,100999.80
2022-10-18T10:39:22.690Z,100994.65
2022-10-18T10:41:58.385Z,100989.53
2022-10-18T10:44:33.056Z,100987.67
2022-10-18T10:47:02.455Z,100982.77
2022-10-18T10:49:46.247Z,100985.38
2022-10-18T10:52:28.837Z,100984.23
2022-10-18T10:55:06.146Z,100976.19
2022-10-18T10:57:49.917Z,100972.75
2022-10-18T11:00:45.841Z,100974.39
2022-10-18T11:03:33.812Z,100972.80
2022-10-18T11:06:02.454Z,100967.42
2022-10-18T11:11:27.999Z,100964.58
2022-10-18T11:14:27.108Z,100963.09
2022-10-18T11:17:40.561Z,100960.31
2022-10-18T11:20:27.892Z,100953.02
2022-10-18T11:22:56.543Z,100948.77
2022-10-18T11:25:50.186Z,100945.77
2022-10-18T11:28:35.505Z,100936.69
2022-10-18T11:31:17.955Z,100928.04
2022-10-18T11:34:13.179Z,100914.34
2022-10-18T11:36:54.598Z,100894.00
2022-10-18T11:39:43.282Z,100902.02
2022-10-18T11:42:20.385Z,100910.23
2022-10-18T11:45:04.360Z,100905.39
2022-10-18T11:47:39.443Z,100898.01
2022-10-18T11:50:41.961Z,100893.54
2022-10-18T11:53:35.042Z,100885.17
2022-10-18T11:56:22.028Z,100883.64
2022-10-18T11:59:05.818Z,100880.11
2022-10-18T12:01:50.139Z,100877.00
2022-10-18T12:05:22.180Z,100870.11
2022-10-18T12:07:52.309Z,100866.90
2022-10-18T12:10:37.755Z,100856.54
2022-10-18T12:13:24.028Z,100848.27
2022-10-18T12:15:52.850Z,100840.23
2022-10-18T12:18:26.044Z,100840.98
2022-10-18T12:21:00.666Z,100832.17
2022-10-18T12:23:35.181Z,100833.40
2022-10-18T12:26:06.699Z,100828.95
2022-10-18T12:28:59.300Z,100819.39
2022-10-18T12:31:42.942Z,100826.89
2022-10-18T12:34:27.019Z,100830.03
2022-10-18T12:37:23.015Z,100828.18
2022-10-18T12:40:21.483Z,100824.77
2022-10-18T12:42:57.236Z,100817.11
2022-10-18T12:45:33.614Z,100810.06
2022-10-18T12:48:08.004Z,100806.52
2022-10-18T12:50:45.639Z,100799.08
2022-10-18T12:53:26.545Z,100791.98
2022-10-18T12:55:56.512Z,100787.80
2022-10-18T12:58:31.152Z,100783.69
2022-10-18T13:01:08.245Z,100787.73
2022-10-18T13:03:55.750Z,100787.35
2022-10-18T13:06:32.800Z,100786.27
2022-10-18T13:09:18.623Z,100782.83
2022-10-18T13:11:47.539Z,100775.78
2022-10-18T13:14:29.334Z,100779.08
2022-10-18T13:17:21.849Z,100782.00
2022-10-18T13:20:25.915Z,100783.76
2022-10-18T13:23:35.445Z,100781.98
2022-10-18T13:26:26.946Z,100780.83
2022-10-18T13:29:09.734Z,100779.68
2022-10-18T13:31:49.490Z,100778.66
2022-10-18T13:34:23.088Z,100784.70
2022-10-18T13:37:03.608Z,100784.71
2022-10-18T13:39:35.475Z,100787.94
2022-10-18T13:42:40.283Z,100789.02
2022-10-18T13:45:32.000Z,100792.56
2022-10-18T13:48:31.264Z,100814.52
2022-10-18T13:51:27.874Z,100837.66
2022-10-18T13:54:14.438Z,100844.23
2022-10-18T13:56:50.023Z,100853.06
2022-10-18T13:59:31.148Z,100856.82
2022-10-18T14:02:50.923Z,100865.47
2022-10-18T14:05:28.846Z,100878.45
2022-10-18T14:08:08.149Z,100894.80
2022-10-18T14:11:01.854Z,100906.82
2022-10-18T14:13:39.841Z,100913.63
2022-10-18T14:16:35.304Z,100922.39
2022-10-18T14:19:25.479Z,100933.46
2022-10-18T14:22:11.822Z,100939.20
2022-10-18T14:24:46.724Z,100934.92
2022-10-18T14:27:23.364Z,100935.80
2022-10-18T14:30:21.759Z,100941.16
2022-10-18T14:32:54.752Z,100941.62
2022-10-18T14:35:32.945Z,100944.08
2022-10-18T14:38:06.852Z,100942.05
2022-10-18T14:40:43.729Z,100944.70
2022-10-18T14:43:24.764Z,100943.92
2022-10-18T14:46:17.363Z,100939.14
2022-10-18T14:48:54.610Z,100932.84
2022-10-18T14:51:31.070Z,100935.10
2022-10-18T14:54:03.686Z,100944.06
2022-10-18T14:56:44.078Z,100952.64
2022-10-18T14:59:25.011Z,100956.98
2022-10-18T15:02:03.500Z,100968.11
2022-10-18T15:04:34.020Z,100972.09
2022-10-18T15:07:06.124Z,100976.78
2022-10-18T15:09:37.317Z,100975.77
2022-10-18T15:12:10.983Z,100977.29
2022-10-18T15:14:42.592Z,100988.80
2022-10-18T15:17:27.224Z,100992.02
2022-10-18T15:20:06.312Z,100994.56
2022-10-18T15:22:35.577Z,100996.34
2022-10-18T15:25:10.065Z,100995.33
2022-10-18T15:30:18.230Z,101007.14
2022-10-18T15:32:55.137Z,101013.98
2022-10-18T15:35:28.717Z,101019.19
2022-10-18T15:38:11.209Z,101026.02
2022-10-18T15:40:54.524Z,101017.34
2022-10-18T15:43:40.487Z,101011.43
2022-10-18T15:46:33.455Z,101013.04
2022-10-18T15:49:25.940Z,101010.45
2022-10-18T15:52:14.555Z,101007.27
2022-10-18T15:54:46.174Z,101006.64
2022-10-18T15:57:23.418Z,101007.33
2022-10-18T16:00:16.273Z,101010.66
2022-10-18T16:02:55.921Z,101018.46
2022-10-18T16:05:46.999Z,101026.96
2022-10-18T16:08:37.308Z,101023.11
2022-10-18T16:11:23.565Z,101024.02
2022-10-18T16:14:00.399Z,101033.11
2022-10-18T16:16:35.154Z,101039.10
2022-10-18T16:19:27.144Z,101044.86
2022-10-18T16:22:06.842Z,101044.55
2022-10-18T16:24:42.563Z,101043.34
2022-10-18T16:27:25.232Z,101048.67
2022-10-18T16:30:03.485Z,101049.33
2022-10-18T16:32:43.615Z,101051.56
2022-10-18T16:35:17.352Z,101049.39
2022-10-18T16:37:52.006Z,101052.09
2022-10-18T16:40:24.287Z,101051.73
2022-10-18T16:42:54.007Z,101055.23
2022-10-18T16:45:27.294Z,101061.39
2022-10-18T16:48:01.599Z,101063.52
2022-10-18T16:50:35.493Z,101066.82
2022-10-18T16:53:06.726Z,101065.80
2022-10-18T16:55:38.008Z,101071.05
2022-10-18T16:58:09.858Z,101071.38
2022-10-18T17:00:42.090Z,101080.98
2022-10-18T17:03:10.941Z,101079.90
2022-10-18T17:05:42.914Z,101079.14
2022-10-18T17:08:26.315Z,101085.14
2022-10-18T17:10:59.475Z,101092.28
2022-10-18T17:13:32.744Z,101091.58
2022-10-18T17:16:08.070Z,101094.14
2022-10-18T17:19:03.032Z,101099.16
2022-10-18T17:21:38.231Z,101100.97
2022-10-18T17:24:13.066Z,101101.91
2022-10-18T17:26:44.308Z,101109.73
2022-10-18T17:29:13.264Z,101114.30
2022-10-18T17:31:42.427Z,101121.08
2022-10-18T17:34:12.171Z,101126.34
2022-10-18T17:36:42.013Z,101123.44
2022-10-18T17:39:12.886Z,101116.80
2022-10-18T17:41:42.222Z,101117.08
2022-10-18T17:44:10.902Z,101116.66
2022-10-18T17:46:39.676Z,101115.33
2022-10-18T17:49:09.711Z,101118.90
2022-10-18T17:51:44.723Z,101123.36
2022-10-18T17:54:14.747Z,101122.27
2022-10-18T17:56:45.663Z,101122.93
2022-10-18T17:59:15.678Z,101126.59
2022-10-18T18:01:54.087Z,101129.52
2022-10-18T18:04:32.150Z,101129.77
2022-10-18T18:07:09.049Z,101133.09
2022-10-18T18:09:47.207Z,101129.84
2022-10-18T18:12:16.766Z,101131.68
2022-10-18T18:14:50.165Z,101132.52
2022-10-18T18:17:33.672Z,101130.11
2022-10-18T18:20:09.113Z,101127.13
2022-10-18T18:22:42.898Z,101130.91
2022-10-18T18:25:17.420Z,101129.15
2022-10-18T18:27:56.839Z,101125.33
2022-10-18T18:30:27.212Z,101123.97
2022-10-18T18:32:59.112Z,101125.02
2022-10-18T18:35:29.800Z,101130.48
2022-10-18T18:40:36.059Z,101128.30
2022-10-18T18:43:22.827Z,101129.27
2022-10-18T18:45:54.408Z,101131.10
2022-10-18T18:48:27.172Z,101127.29
2022-10-18T18:50:57.855Z,101129.66
2022-10-18T18:53:32.009Z,101124.14
2022-10-18T18:56:13.175Z,101120.92
2022-10-18T18:58:49.120Z,101117.82
2022-10-18T19:01:22.668Z,101123.41
2022-10-18T19:03:54.170Z,101120.88
2022-10-18T19:06:37.497Z,101125.33
2022-10-18T19:09:19.558Z,101125.48
2022-10-18T19:11:56.587Z,101128.55
2022-10-18T19:14:26.217Z,101128.23
2022-10-18T19:17:02.335Z,101124.45
2022-10-18T19:19:31.866Z,101123.80
2022-10-18T19:22:04.834Z,101131.00
2022-10-18T19:24:35.626Z,101133.48
2022-10-18T19:27:14.037Z,101129.77
2022-10-18T19:29:46.278Z,101129.76
2022-10-18T19:32:17.260Z,101133.02
2022-10-18T19:34:46.515Z,101126.04
2022-10-18T19:37:16.548Z,101125.39
2022-10-18T19:39:47.282Z,101127.55
2022-10-18T19:42:22.621Z,101121.89
2022-10-18T19:44:56.317Z,101121.09
2022-10-18T19:47:26.199Z,101122.79
2022-10-18T19:49:55.595Z,101123.99
2022-10-18T19:52:24.279Z,101117.27
2022-10-18T19:54:54.112Z,101111.43
2022-10-18T19:57:24.842Z,101121.78
2022-10-18T20:00:00.728Z,101120.27
2022-10-18T20:02:41.013Z,101120.80
2022-10-18T20:05:11.079Z,101121.19
2022-10-18T20:07:41.820Z,101126.30
2022-10-18T20:10:10.719Z,101130.05
2022-10-18T20:12:39.741Z,101129.70
2022-10-18T20:15:10.223Z,101129.53
2022-10-18T20:17:42.431Z,101129.05
2022-10-18T20:20:14.621Z,101127.88
2022-10-18T20:22:46.478Z,101125.79
2022-10-18T20:25:17.805Z,101126.95
2022-10-18T20:28:01.915Z,101125.95
2022-10-18T20:30:41.884Z,101128.67
2022-10-18T20:33:18.658Z,101134.14
2022-10-18T20:35:52.441Z,101129.59
2022-10-18T20:38:40.645Z,101132.77
2022-10-18T20:41:15.195Z,101134.35
2022-10-18T20:43:51.539Z,101135.54
2022-10-18T20:46:24.397Z,101131.71
2022-10-18T20:48:58.190Z,101133.40
2022-10-18T20:51:30.608Z,101131.99
2022-10-18T20:56:42.134Z,101135.38
2022-10-18T20:59:13.579Z,101132.98
2022-10-18T21:01:47.852Z,101137.31
2022-10-18T21:04:19.172Z,101127.15
2022-10-18T21:06:53.482Z,101137.89
2022-10-18T21:09:23.870Z,101132.26
2022-10-18T21:11:56.434Z,101134.56
2022-10-18T21:14:27.591Z,101136.00
2022-10-18T21:17:00.015Z,101139.02
2022-10-18T21:19:37.066Z,101139.27
2022-10-18T21:22:06.729Z,101136.56
2022-10-18T21:24:37.157Z,101141.87
2022-10-18T21:27:07.025Z,101137.91
2022-10-18T21:29:37.435Z,101136.96
2022-10-18T21:32:07.794Z,101135.14
2022-10-18T21:34:36.364Z,101135.66
2022-10-18T21:37:04.781Z,101131.52
2022-10-18T21:39:33.462Z,101131.23
2022-10-18T21:42:02.792Z,101130.19
2022-10-18T21:44:32.443Z,101131.95
2022-10-18T21:47:02.646Z,101130.98
2022-10-18T21:49:36.835Z,101128.20
2022-10-18T21:52:08.246Z,101123.47
2022-10-18T21:54:37.024Z,101125.52
2022-10-18T21:57:05.575Z,101129.58
2022-10-18T21:59:34.037Z,101129.95
2022-10-18T22:02:03.097Z,101129.73
2022-10-18T22:04:35.887Z,101127.96
2022-10-18T22:07:05.239Z,101127.75
2022-10-18T22:09:33.979Z,101121.77
2022-10-18T22:12:05.783Z,101128.27
2022-10-18T22:14:35.435Z,101129.02
2022-10-18T22:17:05.037Z,101122.67
2022-10-18T22:19:34.616Z,101119.69
2022-10-18T22:22:04.418Z,101120.52
2022-10-18T22:27:05.385Z,101121.33
2022-10-18T22:29:34.212Z,101121.75
2022-10-18T22:32:03.355Z,101119.66
2022-10-18T22:34:31.913Z,101122.63
2022-10-18T22:37:01.665Z,101119.26
2022-10-18T22:39:30.873Z,101121.26
2022-10-18T22:41:59.612Z,101120.26
2022-10-18T22:44:30.123Z,101119.55
2022-10-18T22:46:59.184Z,101110.15
2022-10-18T22:49:27.992Z,101111.50
2022-10-18T22:51:56.279Z,101111.55
2022-10-18T22:54:24.677Z,101114.52
2022-10-18T22:56:53.103Z,101111.69
2022-10-18T22:59:21.523Z,101110.92
2022-10-18T23:01:49.784Z,101111.91
2022-10-18T23:04:18.453Z,101113.63
2022-10-18T23:06:46.932Z,101113.35
2022-10-18T23:09:16.648Z,101113.82
2022-10-18T23:11:44.959Z,101111.41
2022-10-18T23:14:13.183Z,101110.67
2022-10-18T23:16:41.427Z,101111.23
2022-10-18T23:19:16.175Z,101108.70
2022-10-18T23:21:45.358Z,101104.34
2022-10-18T23:24:14.141Z,101101.86
2022-10-18T23:26:43.437Z,101102.49
2022-10-18T23:29:12.735Z,101096.54
2022-10-18T23:31:41.911Z,101094.23
2022-10-18T23:34:11.921Z,101089.56
2022-10-18T23:36:40.860Z,101089.29
2022-10-18T23:39:10.380Z,101088.48
2022-10-18T23:41:38.624Z,101090.89
2022-10-18T23:44:09.167Z,101095.52
2022-10-18T23:46:37.560Z,101097.61
2022-10-18T23:49:05.930Z,101097.96
2022-10-18T23:51:34.701Z,101096.42
2022-10-18T23:54:03.102Z,101092.98
2022-10-18T23:56:31.788Z,101094.11
2022-10-18T23:59:00.597Z,101095.57
